sensor_id;sensor_type;location;lat;lon;timestamp;pressure;altitude;pressure_sealevel;temperature;humidity
48402;BME280;65988;52.422;16.746;2023-07-16T00:33:44;99351.50;;;33.89;34.64
48402;BME280;65988;52.422;16.746;2023-07-16T00:36:39;99239.72;;;33.01;35.42
48402;BME280;65988;52.422;16.746;2023-07-16T00:46:12;99501.88;;;34.77;35.04
48402;BME280;65988;52.422;16.746;2023-07-16T00:49:20;99427.06;;;34.62;34.77
48402;BME280;65988;52.422;16.746;2023-07-16T02:01:25;99301.41;;;32.54;37.44
48402;BME280;65988;52.422;16.746;2023-07-16T08:15:20;100216.31;;;34.12;45.06
48402;BME280;65988;52.422;16.746;2023-07-16T08:17:45;100176.69;;;33.72;45.73
48402;BME280;65988;52.422;16.746;2023-07-16T08:20:11;100419.34;;;34.61;45.24
48402;BME280;65988;52.422;16.746;2023-07-16T08:22:37;100439.97;;;33.68;46.93
48402;BME280;65988;52.422;16.746;2023-07-16T08:25:03;100306.66;;;33.76;45.75
48402;BME280;65988;52.422;16.746;2023-07-16T08:27:29;100425.41;;;34.42;45.33
48402;BME280;65988;52.422;16.746;2023-07-16T08:29:55;100251.34;;;34.32;44.81
48402;BME280;65988;52.422;16.746;2023-07-16T08:32:20;100173.13;;;34.35;44.65
48402;BME280;65988;52.422;16.746;2023-07-16T08:34:46;100196.25;;;34.36;44.84
48402;BME280;65988;52.422;16.746;2023-07-16T08:37:11;100128.50;;;33.79;45.48
48402;BME280;65988;52.422;16.746;2023-07-16T08:39:37;100240.31;;;34.62;44.67
48402;BME280;65988;52.422;16.746;2023-07-16T08:42:02;100445.84;;;35.06;45.29
48402;BME280;65988;52.422;16.746;2023-07-16T08:44:29;100358.78;;;34.52;45.50
48402;BME280;65988;52.422;16.746;2023-07-16T08:46:55;100409.09;;;34.78;46.08
48402;BME280;65988;52.422;16.746;2023-07-16T08:49:22;100463.69;;;35.27;46.16
48402;BME280;65988;52.422;16.746;2023-07-16T08:51:48;100416.66;;;35.03;45.69
48402;BME280;65988;52.422;16.746;2023-07-16T08:54:14;100303.91;;;34.61;46.19
48402;BME280;65988;52.422;16.746;2023-07-16T08:56:42;100423.03;;;35.37;46.07
48402;BME280;65988;52.422;16.746;2023-07-16T08:59:09;100419.78;;;35.69;45.77
48402;BME280;65988;52.422;16.746;2023-07-16T09:01:35;100222.50;;;35.36;45.77
48402;BME280;65988;52.422;16.746;2023-07-16T09:04:00;100235.03;;;36.09;45.14
48402;BME280;65988;52.422;16.746;2023-07-16T09:06:26;100395.00;;;36.27;45.64
48402;BME280;65988;52.422;16.746;2023-07-16T09:08:52;100353.44;;;35.96;46.93
48402;BME280;65988;52.422;16.746;2023-07-16T09:11:17;100220.22;;;35.67;46.05
48402;BME280;65988;52.422;16.746;2023-07-16T09:13:46;100343.47;;;35.70;46.80
48402;BME280;65988;52.422;16.746;2023-07-16T09:16:12;100337.06;;;35.97;46.45
48402;BME280;65988;52.422;16.746;2023-07-16T09:18:39;100467.19;;;36.84;45.09
48402;BME280;65988;52.422;16.746;2023-07-16T09:21:05;100204.69;;;35.69;46.06
48402;BME280;65988;52.422;16.746;2023-07-16T09:23:33;100489.44;;;38.08;44.05
48402;BME280;65988;52.422;16.746;2023-07-16T09:25:58;100296.00;;;37.58;44.44
48402;BME280;65988;52.422;16.746;2023-07-16T09:28:24;100399.50;;;38.40;43.76
48402;BME280;65988;52.422;16.746;2023-07-16T09:30:50;100213.28;;;37.52;42.06
48402;BME280;65988;52.422;16.746;2023-07-16T09:33:19;100426.75;;;39.73;42.10
48402;BME280;65988;52.422;16.746;2023-07-16T09:35:48;100330.31;;;39.91;41.16
48402;BME280;65988;52.422;16.746;2023-07-16T09:38:13;100184.22;;;37.79;43.41
48402;BME280;65988;52.422;16.746;2023-07-16T09:40:40;100266.13;;;39.20;41.09
48402;BME280;65988;52.422;16.746;2023-07-16T09:43:09;100159.41;;;35.66;45.17
48402;BME280;65988;52.422;16.746;2023-07-16T09:45:35;100307.31;;;38.73;42.19
48402;BME280;65988;52.422;16.746;2023-07-16T09:48:00;100158.97;;;40.31;39.44
48402;BME280;65988;52.422;16.746;2023-07-16T19:40:42;99321.00;;;33.13;33.14
48402;BME280;65988;52.422;16.746;2023-07-16T19:43:12;99279.44;;;32.97;33.33
48402;BME280;65988;52.422;16.746;2023-07-16T19:45:37;99327.94;;;33.28;33.06
48402;BME280;65988;52.422;16.746;2023-07-16T19:48:02;99381.09;;;33.24;33.39
48402;BME280;65988;52.422;16.746;2023-07-16T19:50:32;99167.00;;;31.93;33.93
48402;BME280;65988;52.422;16.746;2023-07-16T19:52:58;99159.84;;;31.47;34.20
48402;BME280;65988;52.422;16.746;2023-07-16T19:55:23;99364.38;;;32.10;34.31
48402;BME280;65988;52.422;16.746;2023-07-16T19:57:48;99248.56;;;31.29;35.13
48402;BME280;65988;52.422;16.746;2023-07-16T20:00:14;99359.28;;;31.46;35.13
48402;BME280;65988;52.422;16.746;2023-07-16T20:02:41;99288.63;;;31.35;34.65
48402;BME280;65988;52.422;16.746;2023-07-16T20:05:07;99425.38;;;31.79;34.96
48402;BME280;65988;52.422;16.746;2023-07-16T20:07:32;99302.47;;;31.79;34.01
48402;BME280;65988;52.422;16.746;2023-07-16T20:10:02;99498.91;;;32.23;34.49
48402;BME280;65988;52.422;16.746;2023-07-16T20:12:28;99291.97;;;31.98;34.92
48402;BME280;65988;52.422;16.746;2023-07-16T20:14:53;99241.84;;;31.93;34.36
48402;BME280;65988;52.422;16.746;2023-07-16T20:17:19;99268.75;;;32.05;34.25
48402;BME280;65988;52.422;16.746;2023-07-16T20:19:44;99296.50;;;32.11;34.35
48402;BME280;65988;52.422;16.746;2023-07-16T20:22:09;99208.09;;;31.99;33.57
48402;BME280;65988;52.422;16.746;2023-07-16T20:24:34;99227.44;;;31.87;34.26
48402;BME280;65988;52.422;16.746;2023-07-16T20:27:00;99221.25;;;31.53;33.89
48402;BME280;65988;52.422;16.746;2023-07-16T20:29:25;99127.78;;;31.47;34.13
48402;BME280;65988;52.422;16.746;2023-07-16T20:31:50;99249.66;;;32.01;33.78
48402;BME280;65988;52.422;16.746;2023-07-16T20:34:16;99253.97;;;31.89;34.64
48402;BME280;65988;52.422;16.746;2023-07-16T20:36:41;99180.41;;;31.60;34.41
48402;BME280;65988;52.422;16.746;2023-07-16T20:39:08;99254.56;;;31.84;34.23
48402;BME280;65988;52.422;16.746;2023-07-16T20:41:33;99312.56;;;31.90;34.81
48402;BME280;65988;52.422;16.746;2023-07-16T20:44:00;99160.88;;;31.66;34.30
48402;BME280;65988;52.422;16.746;2023-07-16T20:46:25;99259.50;;;31.94;34.34
48402;BME280;65988;52.422;16.746;2023-07-16T20:48:51;99255.41;;;31.85;34.39
48402;BME280;65988;52.422;16.746;2023-07-16T20:51:16;99267.94;;;31.78;34.59
48402;BME280;65988;52.422;16.746;2023-07-16T20:53:41;99240.19;;;31.59;35.18
48402;BME280;65988;52.422;16.746;2023-07-16T20:56:09;99249.44;;;31.63;35.17
48402;BME280;65988;52.422;16.746;2023-07-16T20:58:34;99239.19;;;31.66;34.99
48402;BME280;65988;52.422;16.746;2023-07-16T21:00:59;99267.53;;;31.61;35.40
48402;BME280;65988;52.422;16.746;2023-07-16T21:03:25;99147.50;;;31.46;34.45
48402;BME280;65988;52.422;16.746;2023-07-16T21:05:52;99130.03;;;31.16;34.74
48402;BME280;65988;52.422;16.746;2023-07-16T21:08:17;99240.81;;;29.87;37.46
48402;BME280;65988;52.422;16.746;2023-07-16T21:10:42;99387.75;;;30.55;37.50
48402;BME280;65988;52.422;16.746;2023-07-16T21:13:08;99387.81;;;30.97;36.73
48402;BME280;65988;52.422;16.746;2023-07-16T21:15:33;99335.66;;;30.88;36.62
48402;BME280;65988;52.422;16.746;2023-07-16T21:21:33;99578.06;;;31.69;36.38
48402;BME280;65988;52.422;16.746;2023-07-16T22:41:53;99624.31;;;29.35;40.25
48402;BME280;65988;52.422;16.746;2023-07-16T22:44:44;99618.66;;;29.53;39.80
48402;BME280;65988;52.422;16.746;2023-07-16T22:47:25;99659.56;;;29.38;40.64
48402;BME280;65988;52.422;16.746;2023-07-16T22:52:55;99653.53;;;29.44;40.00
48402;BME280;65988;52.422;16.746;2023-07-16T22:59:08;99592.81;;;29.39;39.62
48402;BME280;65988;52.422;16.746;2023-07-16T23:05:33;99704.34;;;29.72;40.19
48402;BME280;65988;52.422;16.746;2023-07-16T23:08:50;99712.81;;;29.38;40.77
48402;BME280;65988;52.422;16.746;2023-07-16T23:11:56;99715.38;;;29.23;41.02
48402;BME280;65988;52.422;16.746;2023-07-16T23:21:39;99730.00;;;28.64;42.44
48402;BME280;65988;52.422;16.746;2023-07-16T23:38:10;99733.09;;;29.07;41.08
48402;BME280;65988;52.422;16.746;2023-07-16T23:41:52;99671.59;;;28.79;41.45
